Time;durP1;ratioP1;P1;durP2;ratioP2;P2;SDS_P1;SDS_P2;PMS_P1;PMS_P2;Temp;Humidity;BMP_temperature;BMP_pressure;BME280_temperature;BME280_humidity;BME280_pressure;Samples;Min_cycle;Max_cycle;Signal;HPM_P1;HPM_P2
2021/04/15 00:00:51;;;;;;;1.17;1.10;;;8.90;59.90;;;;;;5044506;28;20020;-83
2021/04/15 00:03:20;;;;;;;1.00;1.00;;;8.90;59.90;;;;;;5021649;28;20029;-82
2021/04/15 00:05:47;;;;;;;1.58;1.10;;;8.80;59.90;;;;;;5044411;28;20111;-83
2021/04/15 00:08:15;;;;;;;1.27;1.00;;;8.80;59.90;;;;;;5041120;28;20158;-82
2021/04/15 00:10:44;;;;;;;1.15;1.02;;;8.80;59.90;;;;;;5019243;28;20033;-83
2021/04/15 00:13:25;;;;;;;1.25;1.00;;;8.80;60.00;;;;;;5042796;28;20476;-83
2021/04/15 00:15:52;;;;;;;1.42;1.33;;;8.80;60.00;;;;;;5042475;28;20100;-82
2021/04/15 00:18:19;;;;;;;1.23;1.13;;;8.80;60.00;;;;;;5048622;28;20025;-81
2021/04/15 00:20:45;;;;;;;1.20;1.10;;;8.80;60.10;;;;;;5036265;28;20070;-83
2021/04/15 00:23:11;;;;;;;2.83;1.00;;;8.70;60.00;;;;;;5025359;28;20047;-82
2021/04/15 00:25:37;;;;;;;1.45;1.35;;;8.70;60.00;;;;;;5045675;28;20081;-81
2021/04/15 00:28:03;;;;;;;1.10;1.02;;;8.70;60.00;;;;;;5028213;28;20456;-82
2021/04/15 00:30:29;;;;;;;1.25;1.15;;;8.70;60.10;;;;;;5036611;28;20028;-82
2021/04/15 00:32:55;;;;;;;1.38;1.27;;;8.70;60.10;;;;;;5045797;28;20032;-83
2021/04/15 00:35:21;;;;;;;1.65;1.05;;;8.70;60.10;;;;;;5039982;28;20032;-82
2021/04/15 00:37:48;;;;;;;2.67;1.20;;;8.70;60.10;;;;;;5020476;28;20080;-83
2021/04/15 00:40:17;;;;;;;1.20;1.10;;;8.60;60.10;;;;;;5010579;28;20043;-82
2021/04/15 00:42:43;;;;;;;1.20;1.10;;;8.60;60.20;;;;;;5036182;28;20048;-82
2021/04/15 00:45:20;;;;;;;1.75;1.30;;;8.60;60.20;;;;;;5030313;28;20060;-82
2021/04/15 00:47:56;;;;;;;1.15;1.10;;;8.60;60.30;;;;;;5042122;28;20032;-84
2021/04/15 00:50:56;;;;;;;1.08;1.00;;;8.60;60.30;;;;;;5060969;28;20120;-82
2021/04/15 00:53:28;;;;;;;1.30;1.08;;;8.60;60.40;;;;;;5037153;28;20040;-82
2021/04/15 00:55:54;;;;;;;1.00;1.00;;;8.60;60.40;;;;;;5028176;28;20102;-83
2021/04/15 00:58:20;;;;;;;1.10;1.10;;;8.50;60.40;;;;;;5033970;28;20055;-82
2021/04/15 01:00:46;;;;;;;1.30;1.20;;;8.50;60.50;;;;;;5023470;28;20025;-83
2021/04/15 01:03:12;;;;;;;1.40;1.17;;;8.50;60.50;;;;;;5007502;28;20087;-82
2021/04/15 01:05:41;;;;;;;1.20;1.10;;;8.50;60.50;;;;;;5043006;28;20029;-83
2021/04/15 01:08:08;;;;;;;1.48;1.00;;;8.50;60.70;;;;;;5041784;28;20021;-83
2021/04/15 01:10:43;;;;;;;1.20;1.13;;;8.50;60.70;;;;;;5021336;28;20044;-81
2021/04/15 01:13:12;;;;;;;;;;;8.50;60.70;;;;;;5025834;28;20025;-81
2021/04/15 01:15:56;;;;;;;1.00;1.00;;;8.40;60.60;;;;;;5050721;28;19951;-82
2021/04/15 01:18:50;;;;;;;0.93;0.93;;;8.40;60.60;;;;;;5045641;28;20024;-81
2021/04/15 01:21:42;;;;;;;1.10;0.98;;;8.40;60.70;;;;;;5028564;28;20025;-82
2021/04/15 01:24:34;;;;;;;1.13;1.08;;;8.40;60.80;;;;;;5063294;28;20048;-82
2021/04/15 01:27:34;;;;;;;1.10;1.00;;;8.40;60.80;;;;;;5069997;28;20032;-80
2021/04/15 01:30:20;;;;;;;0.95;0.95;;;8.40;60.90;;;;;;5055074;28;20047;-82
2021/04/15 01:33:04;;;;;;;0.90;0.90;;;8.40;60.90;;;;;;5053417;28;20039;-82
2021/04/15 01:35:35;;;;;;;1.00;1.00;;;8.40;61.00;;;;;;5054093;28;20039;-82
2021/04/15 01:38:00;;;;;;;1.10;1.00;;;8.40;61.00;;;;;;5052195;28;20110;-83
2021/04/15 01:40:34;;;;;;;1.13;1.10;;;8.30;61.00;;;;;;5040155;28;20131;-82
2021/04/15 01:43:13;;;;;;;0.98;0.90;;;8.40;61.10;;;;;;5049126;28;20387;-82
2021/04/15 01:45:50;;;;;;;0.90;0.90;;;8.30;61.10;;;;;;5054033;28;20032;-82
2021/04/15 01:48:36;;;;;;;1.10;1.00;;;8.30;61.10;;;;;;5056420;28;20096;-83
2021/04/15 01:51:13;;;;;;;0.90;0.90;;;8.30;61.20;;;;;;5056324;28;20033;-85
2021/04/15 01:53:46;;;;;;;0.90;0.90;;;8.30;61.20;;;;;;5049124;28;20021;-82
2021/04/15 01:56:50;;;;;;;0.90;0.90;;;8.30;61.20;;;;;;5029489;28;20146;-83
2021/04/15 01:59:21;;;;;;;0.88;0.88;;;8.30;61.40;;;;;;5051628;28;20451;-82
2021/04/15 02:01:51;;;;;;;0.98;0.98;;;8.30;61.20;;;;;;5048409;28;20025;-82
2021/04/15 02:04:28;;;;;;;1.45;0.90;;;8.30;61.30;;;;;;5052713;28;20112;-82
2021/04/15 02:07:01;;;;;;;1.10;1.00;;;8.20;61.40;;;;;;5054362;28;20464;-82
2021/04/15 02:09:28;;;;;;;0.90;0.90;;;8.20;61.40;;;;;;5032280;28;20029;-82
2021/04/15 02:12:02;;;;;;;0.90;0.90;;;8.20;61.40;;;;;;5039567;28;20047;-82
2021/04/15 02:14:34;;;;;;;1.00;1.00;;;8.20;61.50;;;;;;5047920;28;20024;-82
2021/04/15 02:17:03;;;;;;;0.80;0.80;;;8.20;61.40;;;;;;5061765;28;20020;-83
2021/04/15 02:19:55;;;;;;;1.48;1.10;;;8.20;61.40;;;;;;5037479;28;20110;-83
2021/04/15 02:22:49;;;;;;;0.85;0.85;;;8.20;62.20;;;;;;5050265;28;20021;-82
2021/04/15 02:25:14;;;;;;;1.15;1.05;;;8.20;61.50;;;;;;5023208;28;20120;-81
2021/04/15 02:28:04;;;;;;;1.15;1.00;;;8.20;61.50;;;;;;5054448;28;20525;-82
2021/04/15 02:30:36;;;;;;;1.00;1.00;;;8.20;61.70;;;;;;5035275;28;20055;-82
2021/04/15 02:33:12;;;;;;;0.90;0.90;;;8.10;61.50;;;;;;5035000;28;20028;-82
2021/04/15 02:35:37;;;;;;;1.00;1.00;;;8.10;61.60;;;;;;5055726;28;20054;-82
2021/04/15 02:38:04;;;;;;;0.95;0.95;;;8.10;61.60;;;;;;5036966;28;20066;-83
2021/04/15 02:40:35;;;;;;;0.80;0.80;;;8.10;61.70;;;;;;5047075;28;20037;-82
2021/04/15 02:43:07;;;;;;;0.82;0.82;;;8.10;61.70;;;;;;5042654;28;20030;-82
2021/04/15 02:45:39;;;;;;;1.08;1.08;;;8.10;61.80;;;;;;5049019;28;20040;-83
2021/04/15 02:48:07;;;;;;;0.80;0.80;;;8.10;61.80;;;;;;5032311;28;20024;-83
2021/04/15 02:50:34;;;;;;;1.00;1.00;;;8.00;61.70;;;;;;5057107;28;20052;-83
2021/04/15 02:53:23;;;;;;;0.80;0.80;;;8.00;61.80;;;;;;5039821;28;20031;-85
2021/04/15 02:56:06;;;;;;;0.90;0.90;;;8.00;61.90;;;;;;5056646;28;20059;-83
2021/04/15 02:58:50;;;;;;;1.23;1.10;;;8.00;61.80;;;;;;5051991;28;20025;-83
2021/04/15 03:01:20;;;;;;;1.00;1.00;;;8.00;61.90;;;;;;5039666;28;20023;-84
2021/04/15 03:03:50;;;;;;;1.10;1.10;;;8.00;61.80;;;;;;5036873;28;20032;-83
2021/04/15 03:06:20;;;;;;;0.90;0.90;;;8.00;61.90;;;;;;5046499;28;20028;-83
2021/04/15 03:08:50;;;;;;;0.90;0.90;;;8.00;61.90;;;;;;5067583;28;20037;-82
2021/04/15 03:11:23;;;;;;;1.88;0.93;;;8.00;61.90;;;;;;5038583;28;20103;-85
2021/04/15 03:13:53;;;;;;;0.82;0.82;;;8.00;62.00;;;;;;5051420;28;20107;-83
2021/04/15 03:16:24;;;;;;;0.88;0.88;;;8.00;62.00;;;;;;5054939;28;20028;-82
2021/04/15 03:19:19;;;;;;;1.00;1.00;;;8.00;62.00;;;;;;5038922;28;20072;-82
2021/04/15 03:22:03;;;;;;;0.88;0.88;;;8.00;62.20;;;;;;5007378;28;20103;-85
2021/04/15 03:24:41;;;;;;;1.10;1.00;;;8.00;62.10;;;;;;5032708;28;20026;-82
2021/04/15 03:27:13;;;;;;;1.00;1.00;;;8.00;62.10;;;;;;5018229;28;20025;-82
2021/04/15 03:30:01;;;;;;;0.90;0.90;;;7.90;62.10;;;;;;5026726;28;20037;-83
2021/04/15 03:32:39;;;;;;;0.90;0.90;;;8.00;62.20;;;;;;5006625;28;20032;-82
2021/04/15 03:35:10;;;;;;;0.90;0.90;;;7.90;62.10;;;;;;5016348;28;20053;-81
2021/04/15 03:37:58;;;;;;;0.80;0.80;;;7.90;62.10;;;;;;5026829;28;20028;-82
2021/04/15 03:40:26;;;;;;;1.00;1.00;;;7.90;62.20;;;;;;5031661;28;20111;-82
2021/04/15 03:42:59;;;;;;;1.00;0.98;;;7.90;62.20;;;;;;5024551;28;20022;-82
2021/04/15 03:45:31;;;;;;;0.98;0.98;;;7.90;62.20;;;;;;4996353;28;20030;-83
2021/04/15 03:48:03;;;;;;;1.13;1.00;;;7.90;62.20;;;;;;5022251;28;20022;-83
2021/04/15 03:50:56;;;;;;;1.00;1.00;;;7.90;62.90;;;;;;5018923;28;20042;-82
2021/04/15 03:53:33;;;;;;;1.08;1.08;;;7.90;62.30;;;;;;5015621;28;20471;-83
2021/04/15 03:56:04;;;;;;;0.90;0.90;;;7.90;62.20;;;;;;5003221;28;20057;-83
2021/04/15 03:58:39;;;;;;;0.90;0.90;;;7.80;62.20;;;;;;5012395;28;20064;-85
2021/04/15 04:01:14;;;;;;;1.10;1.10;;;7.80;62.30;;;;;;5019788;28;20091;-82
2021/04/15 04:03:42;;;;;;;1.60;1.00;;;7.80;62.30;;;;;;5010687;28;20120;-81
2021/04/15 04:06:26;;;;;;;1.10;1.10;;;7.80;62.20;;;;;;5007145;28;20021;-83
2021/04/15 04:09:11;;;;;;;1.08;0.90;;;7.80;62.40;;;;;;5015452;28;20036;-81
2021/04/15 04:11:40;;;;;;;1.30;1.30;;;7.70;62.30;;;;;;4999503;28;20038;-81
2021/04/15 04:14:16;;;;;;;0.93;0.93;;;7.80;62.30;;;;;;5009971;28;20053;-81
2021/04/15 04:16:45;;;;;;;1.00;1.00;;;7.70;62.30;;;;;;4997059;28;20083;-80
2021/04/15 04:19:35;;;;;;;1.00;1.00;;;7.70;62.30;;;;;;5018931;28;20056;-81
2021/04/15 04:22:44;;;;;;;1.00;1.00;;;7.70;62.60;;;;;;5026466;28;20103;-81
2021/04/15 04:25:25;;;;;;;1.00;1.00;;;7.70;62.50;;;;;;5029266;28;20036;-85
2021/04/15 04:28:14;;;;;;;1.00;1.00;;;7.60;62.30;;;;;;5025676;28;20060;-81
2021/04/15 04:30:58;;;;;;;1.00;1.00;;;7.60;62.40;;;;;;5004381;28;20029;-81
2021/04/15 04:33:39;;;;;;;1.10;1.10;;;7.60;62.50;;;;;;5028856;28;20198;-81
2021/04/15 04:36:07;;;;;;;1.00;1.00;;;7.60;62.50;;;;;;5012319;28;20039;-82
2021/04/15 04:38:34;;;;;;;1.00;0.95;;;7.60;62.40;;;;;;5031392;28;20108;-82
2021/04/15 04:41:07;;;;;;;1.20;1.10;;;7.50;62.40;;;;;;5031874;28;20036;-80
2021/04/15 04:43:49;;;;;;;0.95;0.95;;;7.50;62.50;;;;;;5048115;28;20030;-83
2021/04/15 04:46:30;;;;;;;0.90;0.90;;;7.50;62.60;;;;;;5032433;28;20061;-82
2021/04/15 04:49:01;;;;;;;1.10;1.10;;;7.50;62.60;;;;;;5026796;28;20060;-81
2021/04/15 04:51:44;;;;;;;1.10;1.10;;;7.50;62.50;;;;;;5029933;28;20038;-83
2021/04/15 04:54:11;;;;;;;1.20;1.10;;;7.40;62.60;;;;;;5048817;28;20087;-81
2021/04/15 04:56:44;;;;;;;1.00;1.00;;;7.40;62.50;;;;;;4998393;28;20076;-83
2021/04/15 04:59:34;;;;;;;1.10;1.00;;;7.40;62.60;;;;;;5027288;28;20021;-84
2021/04/15 05:02:00;;;;;;;1.10;1.10;;;7.40;62.60;;;;;;5009546;28;20021;-84
2021/04/15 05:04:31;;;;;;;1.33;1.23;;;7.40;62.60;;;;;;5016156;28;20030;-83
2021/04/15 05:07:02;;;;;;;1.10;1.10;;;7.40;62.60;;;;;;5025618;28;20029;-83
2021/04/15 05:09:38;;;;;;;1.10;1.10;;;7.30;62.60;;;;;;5018075;28;20033;-82
2021/04/15 05:12:12;;;;;;;1.38;1.27;;;7.30;62.60;;;;;;5015519;28;20386;-85
2021/04/15 05:14:38;;;;;;;1.33;1.10;;;7.30;62.70;;;;;;5030603;28;20458;-81
2021/04/15 05:17:15;;;;;;;1.17;1.08;;;7.30;62.60;;;;;;5004398;28;20044;-80
2021/04/15 05:19:41;;;;;;;1.27;1.20;;;7.30;62.70;;;;;;5017728;28;20119;-81
2021/04/15 05:22:08;;;;;;;1.30;1.20;;;7.30;62.70;;;;;;5039844;28;20466;-81
2021/04/15 05:25:15;;;;;;;1.17;1.08;;;7.30;62.70;;;;;;5018037;28;20516;-80
2021/04/15 05:27:41;;;;;;;;;;;7.30;62.80;;;;;;5043212;28;20102;-81
2021/04/15 05:30:42;;;;;;;0.90;0.90;;;7.30;62.60;;;;;;5020595;28;19909;-82
2021/04/15 05:33:13;;;;;;;1.33;1.23;;;7.30;62.70;;;;;;5031135;28;20033;-81
2021/04/15 05:35:43;;;;;;;1.60;1.30;;;7.30;62.70;;;;;;5034421;28;20537;-81
2021/04/15 05:38:12;;;;;;;1.40;1.30;;;7.20;62.70;;;;;;5034506;28;20035;-81
2021/04/15 05:40:38;;;;;;;1.42;1.33;;;7.20;62.80;;;;;;5045129;28;20113;-80
2021/04/15 05:43:04;;;;;;;1.33;1.23;;;7.20;62.80;;;;;;5031166;28;20428;-81
2021/04/15 05:45:31;;;;;;;1.30;1.20;;;7.20;62.90;;;;;;5033786;28;20119;-81
2021/04/15 05:48:08;;;;;;;1.50;1.40;;;7.20;62.90;;;;;;5039482;28;20029;-81
2021/04/15 05:50:39;;;;;;;1.33;1.23;;;7.20;63.00;;;;;;5044532;28;20041;-81
2021/04/15 05:53:21;;;;;;;1.17;1.17;;;7.20;63.00;;;;;;5042492;28;20466;-81
2021/04/15 05:55:55;;;;;;;1.45;1.35;;;7.20;63.00;;;;;;5050622;28;20029;-81
2021/04/15 05:58:36;;;;;;;1.13;1.10;;;7.20;62.90;;;;;;5024011;28;20022;-81
2021/04/15 06:01:42;;;;;;;1.58;1.40;;;7.20;63.00;;;;;;5018270;28;20029;-82
2021/04/15 06:04:18;;;;;;;;;;;7.20;63.10;;;;;;5011953;28;20064;-82
2021/04/15 06:06:45;;;;;;;1.35;1.27;;;7.20;62.80;;;;;;5041884;28;19915;-82
2021/04/15 06:09:12;;;;;;;1.92;1.40;;;7.10;62.70;;;;;;5055471;28;20036;-80
2021/04/15 06:11:53;;;;;;;1.55;1.45;;;7.10;62.90;;;;;;5037729;28;20424;-80
2021/04/15 06:14:41;;;;;;;1.92;1.40;;;7.10;62.90;;;;;;5054185;28;20358;-81
2021/04/15 06:17:26;;;;;;;1.50;1.40;;;7.10;63.00;;;;;;5055466;28;20031;-81
2021/04/15 06:19:59;;;;;;;1.50;1.40;;;7.10;63.00;;;;;;5037163;28;20331;-80
2021/04/15 06:22:27;;;;;;;1.80;1.70;;;7.10;63.00;;;;;;5026766;28;20045;-80
2021/04/15 06:25:13;;;;;;;1.40;1.30;;;7.10;63.00;;;;;;5048078;28;20010;-80
2021/04/15 06:27:40;;;;;;;1.75;1.30;;;7.10;63.10;;;;;;5048038;28;20052;-81
2021/04/15 06:30:14;;;;;;;1.95;1.40;;;7.10;63.00;;;;;;5033047;28;20422;-80
2021/04/15 06:33:02;;;;;;;1.93;1.70;;;7.10;63.10;;;;;;5025506;28;20426;-81
2021/04/15 06:35:31;;;;;;;1.45;1.35;;;7.10;63.10;;;;;;5019023;28;20497;-81
2021/04/15 06:38:13;;;;;;;1.52;1.40;;;7.10;63.00;;;;;;5033711;28;20017;-80
2021/04/15 06:40:51;;;;;;;1.80;1.50;;;7.10;63.00;;;;;;5033928;28;20497;-81
2021/04/15 06:43:28;;;;;;;2.38;1.50;;;7.10;63.00;;;;;;5031851;28;20052;-81
2021/04/15 06:46:02;;;;;;;1.50;1.40;;;7.10;63.10;;;;;;5034972;28;20033;-81
2021/04/15 06:49:00;;;;;;;2.25;1.60;;;7.20;63.10;;;;;;5049132;28;20025;-82
2021/04/15 06:52:02;;;;;;;1.40;1.30;;;7.20;63.20;;;;;;5045694;28;20546;-81
2021/04/15 06:55:02;;;;;;;1.70;1.60;;;7.20;63.20;;;;;;5046184;28;20397;-81
2021/04/15 06:58:10;;;;;;;1.50;1.40;;;7.20;63.20;;;;;;5033459;28;20028;-81
2021/04/15 07:01:07;;;;;;;1.30;1.20;;;7.20;63.20;;;;;;5036798;28;20033;-82
2021/04/15 07:03:51;;;;;;;1.98;1.58;;;7.20;63.10;;;;;;5053658;28;20104;-80
2021/04/15 07:06:20;;;;;;;2.33;1.58;;;7.20;63.20;;;;;;5042901;28;20407;-80
2021/04/15 07:09:02;;;;;;;1.83;1.60;;;7.20;63.20;;;;;;5052308;28;20107;-81
2021/04/15 07:11:38;;;;;;;1.40;1.30;;;7.30;63.30;;;;;;5042117;28;20090;-80
2021/04/15 07:14:28;;;;;;;2.13;1.73;;;7.30;63.30;;;;;;5036802;28;20049;-81
2021/04/15 07:17:16;;;;;;;1.70;1.60;;;7.30;63.40;;;;;;5046081;28;20090;-82
2021/04/15 07:20:06;;;;;;;2.30;1.63;;;7.30;63.30;;;;;;5035628;28;20084;-84
2021/04/15 07:22:59;;;;;;;1.83;1.60;;;7.40;63.30;;;;;;5052051;28;20388;-82
2021/04/15 07:25:59;;;;;;;2.75;1.67;;;7.40;63.50;;;;;;5040969;28;20041;-83
2021/04/15 07:29:06;;;;;;;1.58;1.48;;;7.40;63.50;;;;;;5048642;28;20124;-80
2021/04/15 07:31:47;;;;;;;1.55;1.40;;;7.50;63.60;;;;;;5011528;28;20034;-83
2021/04/15 07:34:45;;;;;;;2.28;1.70;;;7.50;63.40;;;;;;4995419;28;20030;-83
2021/04/15 07:37:29;;;;;;;1.98;1.60;;;7.50;63.60;;;;;;5014921;28;20040;-83
2021/04/15 07:40:14;;;;;;;2.30;1.67;;;7.60;63.60;;;;;;5052952;28;20053;-82
2021/04/15 07:42:51;;;;;;;1.80;1.70;;;7.60;63.60;;;;;;5035892;28;20033;-87
2021/04/15 07:45:57;;;;;;;1.50;1.40;;;7.60;63.60;;;;;;5036810;28;20032;-86
2021/04/15 07:48:47;;;;;;;1.55;1.45;;;7.60;63.60;;;;;;5033618;28;20032;-82
2021/04/15 07:51:51;;;;;;;1.88;1.38;;;7.70;63.50;;;;;;5052398;28;20033;-80
2021/04/15 07:54:44;;;;;;;2.08;1.58;;;7.70;63.60;;;;;;5040537;28;20027;-78
2021/04/15 07:57:35;;;;;;;2.60;1.63;;;7.70;63.60;;;;;;5035781;28;20412;-80
2021/04/15 08:00:21;;;;;;;2.45;1.48;;;7.80;63.60;;;;;;5032210;28;20059;-80
2021/04/15 08:03:18;;;;;;;2.28;1.55;;;7.80;63.70;;;;;;5039320;28;20021;-79
2021/04/15 08:06:03;;;;;;;2.00;1.58;;;7.80;63.70;;;;;;5046800;28;20406;-80
2021/04/15 08:08:51;;;;;;;1.63;1.50;;;7.90;63.60;;;;;;5045066;28;20029;-79
2021/04/15 08:11:30;;;;;;;1.40;1.30;;;7.90;63.70;;;;;;5048665;28;20033;-79
2021/04/15 08:14:23;;;;;;;1.50;1.40;;;7.90;63.60;;;;;;5030005;28;20551;-80
2021/04/15 08:17:10;;;;;;;2.00;1.50;;;8.00;63.80;;;;;;5028398;28;20045;-79
2021/04/15 08:20:14;;;;;;;1.52;1.42;;;8.00;63.60;;;;;;5020727;28;20495;-80
2021/04/15 08:22:48;;;;;;;1.73;1.38;;;8.00;63.70;;;;;;5013318;28;20034;-85
2021/04/15 08:25:24;;;;;;;2.00;1.52;;;8.10;63.60;;;;;;4995334;28;20033;-81
2021/04/15 08:28:31;;;;;;;1.77;1.42;;;8.10;63.60;;;;;;5021457;28;20026;-82
2021/04/15 08:31:08;;;;;;;1.38;1.27;;;8.20;63.80;;;;;;5022987;28;20061;-82
2021/04/15 08:34:05;;;;;;;1.27;1.27;;;8.20;63.50;;;;;;5028267;28;20442;-79
2021/04/15 08:36:58;;;;;;;1.50;1.40;;;8.20;63.60;;;;;;5026945;28;20036;-78
2021/04/15 08:39:38;;;;;;;1.70;1.30;;;8.30;63.60;;;;;;5022252;28;20034;-78
2021/04/15 08:42:35;;;;;;;1.50;1.30;;;8.30;63.50;;;;;;5016624;28;20082;-80
2021/04/15 08:45:10;;;;;;;1.50;1.40;;;8.40;63.60;;;;;;5013889;28;20454;-80
2021/04/15 08:47:53;;;;;;;1.40;1.20;;;8.40;63.40;;;;;;5014144;28;20048;-80
2021/04/15 08:50:25;;;;;;;1.67;1.35;;;8.50;63.50;;;;;;5012499;28;20041;-80
2021/04/15 08:52:58;;;;;;;1.50;1.40;;;8.50;63.50;;;;;;5020960;28;20116;-80
2021/04/15 08:55:38;;;;;;;1.40;1.30;;;8.50;63.50;;;;;;5017673;28;20087;-80
2021/04/15 08:58:15;;;;;;;1.40;1.30;;;8.50;63.40;;;;;;5005569;28;20022;-81
2021/04/15 09:00:56;;;;;;;1.58;1.48;;;8.60;63.40;;;;;;5026977;28;20029;-80
2021/04/15 09:03:39;;;;;;;1.73;1.30;;;8.60;63.30;;;;;;5015235;28;20370;-79
2021/04/15 09:06:20;;;;;;;2.22;1.42;;;8.70;63.40;;;;;;5014628;28;20040;-80
2021/04/15 09:09:10;;;;;;;1.50;1.40;;;8.70;63.20;;;;;;5022162;28;20485;-79
2021/04/15 09:12:06;;;;;;;1.40;1.30;;;8.80;63.30;;;;;;5031444;28;20037;-80
2021/04/15 09:14:50;;;;;;;1.52;1.33;;;8.80;63.30;;;;;;5001938;28;20493;-79
2021/04/15 09:17:39;;;;;;;1.15;1.05;;;8.80;63.20;;;;;;5023275;28;20026;-80
2021/04/15 09:20:23;;;;;;;1.30;1.20;;;8.90;63.30;;;;;;5030240;28;20064;-80
2021/04/15 09:23:01;;;;;;;1.80;1.50;;;8.90;63.30;;;;;;5014286;28;20216;-83
2021/04/15 09:25:38;;;;;;;1.67;1.30;;;8.90;63.20;;;;;;5011866;28;20073;-80
2021/04/15 09:28:29;;;;;;;1.23;1.20;;;9.00;63.20;;;;;;4999400;28;20113;-80
2021/04/15 09:31:15;;;;;;;1.17;1.17;;;9.00;63.20;;;;;;5022136;28;20397;-79
2021/04/15 09:33:58;;;;;;;1.30;1.30;;;9.10;63.10;;;;;;5012134;28;20459;-82
2021/04/15 09:36:42;;;;;;;1.50;1.40;;;9.10;63.10;;;;;;5026203;28;20640;-88
2021/04/15 09:39:46;;;;;;;1.15;1.15;;;9.20;63.10;;;;;;5026159;28;20097;-81
2021/04/15 09:42:37;;;;;;;1.25;1.15;;;9.10;63.00;;;;;;5004174;28;20030;-83
2021/04/15 09:45:30;;;;;;;2.08;1.50;;;9.20;63.00;;;;;;5035416;28;20029;-85
2021/04/15 09:48:10;;;;;;;1.20;1.20;;;9.30;63.10;;;;;;5019660;28;20087;-83
2021/04/15 09:51:09;;;;;;;1.80;1.27;;;9.30;62.90;;;;;;5035109;28;20061;-81
2021/04/15 09:54:00;;;;;;;1.23;1.13;;;9.40;63.00;;;;;;5018224;28;20142;-81
2021/04/15 09:56:53;;;;;;;1.30;1.20;;;9.50;62.90;;;;;;5024482;28;20514;-82
2021/04/15 09:59:46;;;;;;;1.40;1.30;;;9.50;62.90;;;;;;5016633;28;20037;-83
2021/04/15 10:02:25;;;;;;;1.20;1.10;;;9.60;62.70;;;;;;5031354;28;20095;-81
2021/04/15 10:04:56;;;;;;;1.30;1.20;;;9.70;62.70;;;;;;5022361;28;20024;-85
2021/04/15 10:07:44;;;;;;;1.70;1.42;;;9.80;62.70;;;;;;5032100;28;20027;-83
2021/04/15 10:10:21;;;;;;;1.48;1.30;;;9.90;62.60;;;;;;5016329;28;20069;-85
2021/04/15 10:13:05;;;;;;;1.50;1.30;;;9.90;62.60;;;;;;5034906;28;20029;-83
2021/04/15 10:15:51;;;;;;;1.23;1.20;;;10.00;62.60;;;;;;5036162;28;20488;-80
2021/04/15 10:18:44;;;;;;;1.35;1.25;;;10.10;62.60;;;;;;5015851;28;20021;-80
2021/04/15 10:21:34;;;;;;;1.23;1.17;;;10.20;62.60;;;;;;5075075;28;20085;-85
2021/04/15 10:24:14;;;;;;;1.50;1.40;;;10.20;62.50;;;;;;5048541;28;20111;-85
2021/04/15 10:26:57;;;;;;;1.10;1.10;;;10.30;62.40;;;;;;5057899;28;20384;-88
2021/04/15 10:29:26;;;;;;;1.40;1.30;;;10.40;62.40;;;;;;5076126;28;20040;-83
2021/04/15 10:32:32;;;;;;;1.35;1.25;;;10.40;62.30;;;;;;5053384;28;20045;-80
2021/04/15 10:35:19;;;;;;;1.25;1.17;;;10.50;62.50;;;;;;5069455;28;20078;-82
2021/04/15 10:38:22;;;;;;;1.00;1.00;;;10.60;62.30;;;;;;5074373;28;20028;-82
2021/04/15 10:41:14;;;;;;;1.38;1.27;;;10.60;62.30;;;;;;5046026;28;20025;-83
2021/04/15 10:43:49;;;;;;;1.25;1.15;;;10.70;62.20;;;;;;5057524;28;20099;-83
2021/04/15 10:46:32;;;;;;;1.30;1.20;;;10.70;62.10;;;;;;5035997;28;20338;-82
2021/04/15 10:49:06;;;;;;;1.40;1.30;;;10.80;62.10;;;;;;5036502;28;20028;-91
2021/04/15 10:51:49;;;;;;;1.20;1.10;;;10.90;62.10;;;;;;5033367;28;20529;-81
2021/04/15 10:54:29;;;;;;;1.40;1.30;;;10.90;62.00;;;;;;5041304;28;20028;-91
2021/04/15 10:57:22;;;;;;;1.20;1.13;;;11.00;62.00;;;;;;5056469;28;20028;-81
2021/04/15 10:59:50;;;;;;;1.52;1.30;;;11.00;62.00;;;;;;5060621;28;20043;-85
2021/04/15 11:02:32;;;;;;;1.52;1.40;;;11.10;61.90;;;;;;5037086;28;20048;-80
2021/04/15 11:05:19;;;;;;;1.40;1.30;;;11.10;61.90;;;;;;5048230;28;20107;-80
2021/04/15 11:07:46;;;;;;;1.17;1.10;;;11.20;61.90;;;;;;5026721;28;20063;-82
2021/04/15 11:10:37;;;;;;;1.30;1.20;;;11.20;61.80;;;;;;5021187;28;20025;-84
2021/04/15 11:13:08;;;;;;;1.55;1.30;;;11.30;61.80;;;;;;5041240;28;20082;-86
2021/04/15 11:15:46;;;;;;;2.00;1.30;;;11.40;61.70;;;;;;5048111;28;20036;-83
2021/04/15 11:18:26;;;;;;;1.40;1.30;;;11.40;61.70;;;;;;5056485;28;20123;-84
2021/04/15 11:20:54;;;;;;;1.75;1.27;;;11.50;61.70;;;;;;5047515;28;20413;-84
2021/04/15 11:23:19;;;;;;;1.40;1.30;;;11.50;61.50;;;;;;5074448;28;20102;-85
2021/04/15 11:25:48;;;;;;;1.10;1.10;;;11.60;61.50;;;;;;5046550;28;20029;-85
2021/04/15 11:28:23;;;;;;;1.35;1.25;;;11.60;61.50;;;;;;5036362;28;20036;-85
2021/04/15 11:31:22;;;;;;;1.45;1.33;;;11.70;61.50;;;;;;5039362;28;20094;-85
2021/04/15 11:33:51;;;;;;;1.85;1.40;;;11.80;61.50;;;;;;5030376;28;20048;-84
2021/04/15 11:36:22;;;;;;;2.60;1.20;;;11.80;61.30;;;;;;5049829;28;20020;-84
2021/04/15 11:38:52;;;;;;;1.48;1.20;;;11.80;61.30;;;;;;5036537;28;20017;-84
2021/04/15 11:41:25;;;;;;;1.40;1.30;;;11.90;61.30;;;;;;5036411;28;20421;-85
2021/04/15 11:44:13;;;;;;;1.25;1.10;;;11.90;61.20;;;;;;5056345;28;20021;-84
2021/04/15 11:46:48;;;;;;;1.73;1.20;;;12.00;61.30;;;;;;5036541;28;20021;-85
2021/04/15 11:49:20;;;;;;;1.48;1.27;;;12.10;61.20;;;;;;5020082;28;20037;-84
2021/04/15 11:52:12;;;;;;;1.35;1.25;;;12.10;61.20;;;;;;5037222;28;20057;-84
2021/04/15 11:54:58;;;;;;;1.10;1.00;;;12.10;61.20;;;;;;5040191;28;20047;-85
2021/04/15 11:57:26;;;;;;;1.50;1.20;;;12.20;61.10;;;;;;5051505;28;20500;-85
2021/04/15 11:59:59;;;;;;;1.40;1.30;;;12.30;61.00;;;;;;5047648;28;20500;-84
2021/04/15 12:02:44;;;;;;;1.40;1.30;;;12.30;61.00;;;;;;5039854;28;20371;-83
2021/04/15 12:05:29;;;;;;;1.75;1.30;;;12.40;61.10;;;;;;5040025;28;20179;-85
2021/04/15 12:08:15;;;;;;;1.52;1.38;;;12.40;61.00;;;;;;5044056;28;20405;-85
2021/04/15 12:10:50;;;;;;;;;;;12.50;61.00;;;;;;5038031;28;20036;-84
2021/04/15 12:13:24;;;;;;;1.27;1.17;;;12.50;60.90;;;;;;5041137;28;19912;-85
2021/04/15 12:16:05;;;;;;;1.30;1.20;;;12.60;60.80;;;;;;5039569;28;20028;-84
2021/04/15 12:18:56;;;;;;;1.58;1.35;;;12.60;60.90;;;;;;5048937;28;20031;-85
2021/04/15 12:21:55;;;;;;;1.33;1.23;;;12.70;61.00;;;;;;5039983;28;20040;-86
2021/04/15 12:24:26;;;;;;;1.30;1.20;;;12.70;61.00;;;;;;5036004;28;20083;-85
2021/04/15 12:27:05;;;;;;;1.58;1.48;;;12.80;60.80;;;;;;5021883;28;20025;-85
2021/04/15 12:30:09;;;;;;;1.40;1.30;;;12.90;60.90;;;;;;5035923;28;20041;-84
2021/04/15 12:32:37;;;;;;;1.73;1.27;;;12.90;60.80;;;;;;5051202;28;20085;-85
2021/04/15 12:35:25;;;;;;;1.40;1.30;;;13.00;60.70;;;;;;5041687;28;20021;-84
2021/04/15 12:38:13;;;;;;;1.30;1.20;;;13.00;60.70;;;;;;5044191;28;20082;-84
2021/04/15 12:40:42;;;;;;;1.40;1.30;;;13.10;60.70;;;;;;5035855;28;20037;-84
2021/04/15 12:43:31;;;;;;;1.30;1.20;;;13.20;60.60;;;;;;5049857;28;20080;-85
2021/04/15 12:46:03;;;;;;;1.50;1.30;;;13.30;60.50;;;;;;5043932;28;20028;-84
2021/04/15 12:48:31;;;;;;;1.65;1.40;;;13.40;60.50;;;;;;5040089;28;20772;-87
2021/04/15 12:51:03;;;;;;;1.45;1.35;;;13.40;60.40;;;;;;5050701;28;20032;-85
2021/04/15 12:53:32;;;;;;;1.48;1.38;;;13.50;60.40;;;;;;5035851;28;20377;-85
2021/04/15 12:55:58;;;;;;;2.47;1.50;;;13.60;60.20;;;;;;5055887;28;20025;-85
2021/04/15 12:58:24;;;;;;;1.50;1.40;;;13.60;60.10;;;;;;5041982;28;20093;-85
2021/04/15 13:00:55;;;;;;;1.40;1.30;;;13.70;60.10;;;;;;5033378;28;20074;-85
2021/04/15 13:03:25;;;;;;;1.38;1.27;;;13.80;60.10;;;;;;5035448;28;20112;-85
2021/04/15 13:05:57;;;;;;;1.40;1.30;;;13.90;60.00;;;;;;5049403;28;20028;-84
2021/04/15 13:08:38;;;;;;;1.58;1.45;;;13.90;59.80;;;;;;5048716;28;20112;-85
2021/04/15 13:11:32;;;;;;;1.30;1.13;;;14.00;59.80;;;;;;5038903;28;20040;-83
2021/04/15 13:14:12;;;;;;;1.45;1.33;;;14.10;59.70;;;;;;5045466;28;20025;-86
2021/04/15 13:16:44;;;;;;;1.90;1.45;;;14.10;59.60;;;;;;5048955;28;20029;-84
2021/04/15 13:19:10;;;;;;;1.45;1.35;;;14.20;59.60;;;;;;5042148;28;20099;-83
2021/04/15 13:21:55;;;;;;;1.40;1.30;;;14.20;59.50;;;;;;5029665;28;20036;-85
2021/04/15 13:24:43;;;;;;;1.50;1.40;;;14.30;59.50;;;;;;5040445;28;20028;-86
2021/04/15 13:30:24;;;;;;;1.98;1.45;;;14.50;59.60;;;;;;5061744;28;20040;-84
2021/04/15 13:33:15;;;;;;;1.65;1.38;;;14.50;59.50;;;;;;5032539;28;20442;-85
2021/04/15 13:36:00;;;;;;;1.70;1.58;;;14.50;59.50;;;;;;5033344;28;20024;-83
2021/04/15 13:38:32;;;;;;;3.03;1.60;;;14.50;59.30;;;;;;5050234;28;20097;-85
2021/04/15 13:41:00;;;;;;;1.42;1.30;;;14.60;59.30;;;;;;5061700;28;20033;-85
2021/04/15 13:43:33;;;;;;;1.58;1.30;;;14.60;59.30;;;;;;5028938;28;20029;-85
2021/04/15 13:46:24;;;;;;;1.50;1.40;;;14.70;59.40;;;;;;5041822;28;20033;-85
2021/04/15 13:49:03;;;;;;;1.75;1.40;;;14.70;59.40;;;;;;5025208;28;20102;-85
2021/04/15 13:51:52;;;;;;;1.77;1.40;;;14.80;59.40;;;;;;5071843;28;20040;-85
2021/04/15 13:54:36;;;;;;;1.75;1.40;;;14.80;59.40;;;;;;5049295;28;20028;-85
2021/04/15 13:57:09;;;;;;;1.50;1.40;;;14.90;59.30;;;;;;5031166;28;20036;-84
2021/04/15 13:59:45;;;;;;;2.95;1.80;;;14.90;59.30;;;;;;5041890;28;20036;-85
2021/04/15 14:02:11;;;;;;;1.83;1.48;;;14.90;59.20;;;;;;5045061;28;20462;-84